createdAt,value
2022-11-10T00:02:07.665Z,13.73
2022-11-10T00:07:10.172Z,13.86
2022-11-10T00:12:12.775Z,13.72
2022-11-10T00:17:15.301Z,13.66
2022-11-10T00:22:17.757Z,13.66
2022-11-10T00:27:20.289Z,13.76
2022-11-10T00:38:00.396Z,13.56
2022-11-10T00:43:02.708Z,13.52
2022-11-10T00:48:05.397Z,13.48
2022-11-10T00:53:07.809Z,13.63
2022-11-10T00:58:10.193Z,13.59
2022-11-10T01:03:18.883Z,13.58
2022-11-10T01:08:21.194Z,13.52
2022-11-10T01:13:23.692Z,13.32
2022-11-10T01:18:26.055Z,13.35
2022-11-10T01:23:28.250Z,13.48
2022-11-10T01:28:31.331Z,13.31
2022-11-10T01:33:34.274Z,13.27
2022-11-10T01:38:39.668Z,13.38
2022-11-10T01:43:42.262Z,13.39
2022-11-10T01:48:47.240Z,13.33
2022-11-10T01:54:00.233Z,13.28
2022-11-10T01:59:08.456Z,13.40
2022-11-10T02:04:15.383Z,13.30
2022-11-10T02:09:18.458Z,13.17
2022-11-10T02:14:20.762Z,13.18
2022-11-10T02:19:25.417Z,13.45
2022-11-10T02:24:27.755Z,13.48
2022-11-10T02:29:29.960Z,13.43
2022-11-10T02:34:32.217Z,13.29
2022-11-10T02:39:34.437Z,13.21
2022-11-10T02:44:38.691Z,13.39
2022-11-10T02:49:41.209Z,13.43
2022-11-10T02:54:43.384Z,13.33
2022-11-10T02:59:45.572Z,13.28
2022-11-10T03:04:47.774Z,13.32
2022-11-10T03:09:50.037Z,13.47
2022-11-10T03:14:52.188Z,13.48
2022-11-10T03:19:54.369Z,13.42
2022-11-10T03:24:56.552Z,13.43
2022-11-10T03:29:58.770Z,13.43
2022-11-10T03:35:00.965Z,13.31
2022-11-10T03:40:03.923Z,13.40
2022-11-10T03:45:06.719Z,13.42
2022-11-10T03:50:09.316Z,13.46
2022-11-10T03:55:14.202Z,13.57
2022-11-10T04:00:16.877Z,13.14
2022-11-10T04:05:38.134Z,13.25
2022-11-10T04:10:40.422Z,13.62
2022-11-10T04:21:58.276Z,13.58
2022-11-10T04:27:00.442Z,13.51
2022-11-10T04:32:02.622Z,13.43
2022-11-10T04:37:05.511Z,13.64
2022-11-10T04:42:07.826Z,13.47
2022-11-10T04:47:11.980Z,13.58
2022-11-10T04:52:14.419Z,13.52
2022-11-10T04:57:16.581Z,13.55
2022-11-10T05:02:18.757Z,13.46
2022-11-10T05:07:20.930Z,13.58
2022-11-10T05:12:23.110Z,13.48
2022-11-10T05:17:25.477Z,13.47
2022-11-10T05:22:27.798Z,13.53
2022-11-10T05:27:30.397Z,13.34
2022-11-10T05:32:33.474Z,13.54
2022-11-10T05:37:40.177Z,13.47
2022-11-10T05:42:53.226Z,13.52
2022-11-10T05:47:56.476Z,13.41
2022-11-10T05:52:58.669Z,13.58
2022-11-10T05:58:00.856Z,13.33
2022-11-10T06:03:21.604Z,13.41
2022-11-10T06:08:24.207Z,13.39
2022-11-10T06:13:26.469Z,13.67
2022-11-10T06:18:28.643Z,13.60
2022-11-10T06:23:30.905Z,13.80
2022-11-10T06:28:33.083Z,13.91
2022-11-10T06:33:35.306Z,13.86
2022-11-10T06:38:37.451Z,13.91
2022-11-10T06:43:39.853Z,13.99
2022-11-10T06:48:42.030Z,14.16
2022-11-10T06:53:44.292Z,14.10
2022-11-10T06:58:46.477Z,14.17
2022-11-10T07:04:13.498Z,14.38
2022-11-10T07:09:10.870Z,14.60
2022-11-10T07:14:13.048Z,14.58
2022-11-10T07:19:15.217Z,14.69
2022-11-10T07:24:17.406Z,14.70
2022-11-10T07:29:19.690Z,14.86
2022-11-10T07:34:21.900Z,15.02
2022-11-10T07:39:24.060Z,15.01
2022-11-10T07:44:28.093Z,15.22
2022-11-10T07:49:30.308Z,15.40
2022-11-10T07:54:32.491Z,15.47
2022-11-10T07:59:34.652Z,15.51
2022-11-10T08:04:36.814Z,15.53
2022-11-10T08:09:38.966Z,15.67
2022-11-10T08:14:41.159Z,15.57
2022-11-10T08:19:43.356Z,15.89
2022-11-10T08:24:45.744Z,15.86
2022-11-10T08:29:47.917Z,16.12
2022-11-10T08:34:50.088Z,16.07
2022-11-10T08:39:52.284Z,16.37
2022-11-10T08:44:54.443Z,16.38
2022-11-10T08:49:56.639Z,16.57
2022-11-10T08:54:58.886Z,16.73
2022-11-10T09:00:01.077Z,16.74
2022-11-10T09:05:03.431Z,16.82
2022-11-10T09:10:08.064Z,16.79
2022-11-10T09:15:11.465Z,17.05
2022-11-10T09:20:13.695Z,17.00
2022-11-10T09:25:16.005Z,17.28
2022-11-10T09:30:18.872Z,17.35
2022-11-10T09:35:21.469Z,17.52
2022-11-10T09:40:51.251Z,17.59
2022-11-10T09:45:55.896Z,17.68
2022-11-10T09:51:03.310Z,17.90
2022-11-10T09:56:07.275Z,18.03
2022-11-10T10:01:15.263Z,18.08
2022-11-10T10:06:17.674Z,18.08
2022-11-10T10:23:30.483Z,18.63
2022-11-10T10:28:46.451Z,18.74
2022-11-10T10:33:49.723Z,18.51
2022-11-10T10:39:01.370Z,18.76
2022-11-10T10:44:12.635Z,18.74
2022-11-10T10:49:31.458Z,18.97
2022-11-10T10:54:36.479Z,19.03
2022-11-10T10:59:38.683Z,18.96
2022-11-10T11:04:40.883Z,19.23
2022-11-10T11:09:44.689Z,19.23
2022-11-10T11:14:46.975Z,19.33
2022-11-10T11:19:59.417Z,19.43
2022-11-10T11:25:09.635Z,19.58
2022-11-10T11:30:17.820Z,19.58
2022-11-10T11:35:44.812Z,19.78
2022-11-10T11:41:05.445Z,19.68
2022-11-10T11:46:22.235Z,19.92
2022-11-10T11:51:48.898Z,20.13
2022-11-10T11:56:52.203Z,20.22
2022-11-10T12:02:02.384Z,20.34
2022-11-10T12:07:28.761Z,20.39
2022-11-10T12:12:46.585Z,20.37
2022-11-10T12:18:17.998Z,20.62
2022-11-10T12:23:29.053Z,20.60
2022-11-10T12:28:40.246Z,20.58
2022-11-10T12:33:47.961Z,20.33
2022-11-10T12:39:19.305Z,20.35
2022-11-10T12:44:37.465Z,20.35
2022-11-10T12:50:01.368Z,20.14
2022-11-10T12:55:04.600Z,20.20
2022-11-10T13:00:27.766Z,20.44
2022-11-10T13:05:42.424Z,20.69
2022-11-10T13:11:01.722Z,20.84
2022-11-10T13:16:04.047Z,21.00
2022-11-10T13:21:06.325Z,21.21
2022-11-10T13:26:32.949Z,21.30
2022-11-10T13:31:40.627Z,21.39
2022-11-10T13:36:45.422Z,21.43
2022-11-10T13:41:57.503Z,21.39
2022-11-10T13:47:08.627Z,21.57
2022-11-10T13:52:20.768Z,21.64
2022-11-10T13:57:37.850Z,21.70
2022-11-10T14:02:47.623Z,21.82
2022-11-10T14:07:50.586Z,22.17
2022-11-10T14:12:58.679Z,22.16
2022-11-10T14:18:01.284Z,22.28
2022-11-10T14:23:06.151Z,22.52
2022-11-10T14:28:27.461Z,22.81
2022-11-10T14:33:29.777Z,22.65
2022-11-10T14:38:36.190Z,22.80
2022-11-10T14:43:39.685Z,22.51
2022-11-10T14:48:42.081Z,21.80
2022-11-10T14:53:53.432Z,21.38
2022-11-10T14:58:59.515Z,21.10
2022-11-10T15:04:04.416Z,20.78
2022-11-10T15:09:22.572Z,20.39
2022-11-10T15:14:40.975Z,20.00
2022-11-10T15:19:45.888Z,19.73
2022-11-10T15:24:50.691Z,19.48
2022-11-10T15:29:54.663Z,19.19
2022-11-10T15:35:09.879Z,18.97
2022-11-10T15:40:33.702Z,18.70
2022-11-10T15:45:36.459Z,18.29
2022-11-10T15:50:38.920Z,18.41
2022-11-10T15:55:42.603Z,18.29
2022-11-10T16:00:44.996Z,18.08
2022-11-10T16:05:48.958Z,17.90
2022-11-10T16:10:54.626Z,17.88
2022-11-10T16:15:58.143Z,17.79
2022-11-10T16:21:00.381Z,17.44
2022-11-10T16:26:05.397Z,17.48
2022-11-10T16:31:11.787Z,17.54
2022-11-10T16:36:16.905Z,17.43
2022-11-10T16:41:19.277Z,17.36
2022-11-10T16:46:28.788Z,17.17
2022-11-10T16:51:51.208Z,17.12
2022-11-10T16:56:53.424Z,16.98
2022-11-10T17:01:55.812Z,16.89
2022-11-10T17:06:58.081Z,17.08
2022-11-10T17:12:00.297Z,16.96
2022-11-10T17:17:03.136Z,16.81
2022-11-10T17:22:05.628Z,16.78
2022-11-10T17:27:09.007Z,16.48
2022-11-10T17:32:11.185Z,16.65
2022-11-10T17:37:14.454Z,16.64
2022-11-10T17:42:16.787Z,16.63
2022-11-10T17:47:19.276Z,16.54
2022-11-10T17:52:21.833Z,16.56
2022-11-10T17:57:24.033Z,16.45
2022-11-10T18:02:26.243Z,16.15
2022-11-10T18:07:38.606Z,16.34
2022-11-10T18:12:41.663Z,16.08
2022-11-10T18:17:44.345Z,15.94
2022-11-10T18:22:46.557Z,16.03
2022-11-10T18:27:49.093Z,15.91
2022-11-10T18:32:51.326Z,15.56
2022-11-10T18:37:53.564Z,15.65
2022-11-10T18:43:05.969Z,15.74
2022-11-10T18:48:09.600Z,15.65
2022-11-10T18:53:12.232Z,15.41
2022-11-10T18:58:14.408Z,15.21
2022-11-10T19:03:16.711Z,15.30
2022-11-10T19:08:18.993Z,15.22
2022-11-10T19:13:22.167Z,15.03
2022-11-10T19:18:24.597Z,15.00
2022-11-10T19:23:27.049Z,14.91
2022-11-10T19:28:30.183Z,14.99
2022-11-10T19:33:33.898Z,14.95
2022-11-10T19:38:37.011Z,14.95
2022-11-10T19:43:42.475Z,14.86
2022-11-10T19:48:48.774Z,14.82
2022-11-10T19:53:58.258Z,14.75
2022-11-10T19:59:00.629Z,14.74
2022-11-10T20:04:03.489Z,14.78
2022-11-10T20:09:05.801Z,14.67
2022-11-10T20:14:08.207Z,14.50
2022-11-10T20:19:10.395Z,14.43
2022-11-10T20:24:13.243Z,14.44
2022-11-10T20:29:15.742Z,14.37
2022-11-10T20:34:18.089Z,14.43
2022-11-10T20:39:20.282Z,14.43
2022-11-10T20:44:22.532Z,14.20
2022-11-10T20:49:24.968Z,14.18
2022-11-10T20:54:27.827Z,14.30
2022-11-10T20:59:30.207Z,14.30
2022-11-10T21:04:32.412Z,14.21
2022-11-10T21:09:34.636Z,14.01
2022-11-10T21:14:36.903Z,14.14
2022-11-10T21:19:39.289Z,13.99
2022-11-10T21:24:41.502Z,13.99
2022-11-10T21:29:43.748Z,13.81
2022-11-10T21:34:47.618Z,14.00
2022-11-10T21:39:50.401Z,13.90
2022-11-10T21:44:52.599Z,13.77
2022-11-10T21:49:54.812Z,13.65
2022-11-10T21:54:57.133Z,13.52
2022-11-10T21:59:59.482Z,13.49
2022-11-10T22:05:01.665Z,13.66
2022-11-10T22:10:22.657Z,13.51
2022-11-10T22:15:43.473Z,13.53
2022-11-10T22:20:46.027Z,13.52
2022-11-10T22:25:48.168Z,13.31
2022-11-10T22:30:51.784Z,13.50
2022-11-10T22:35:58.459Z,13.36
2022-11-10T22:41:19.246Z,13.36
2022-11-10T22:46:21.456Z,13.18
2022-11-10T22:51:24.592Z,13.24
2022-11-10T22:56:27.356Z,13.10
2022-11-10T23:01:30.311Z,13.02
2022-11-10T23:06:33.342Z,13.22
2022-11-10T23:11:35.868Z,13.13
2022-11-10T23:16:38.074Z,13.09
2022-11-10T23:21:40.348Z,13.04
2022-11-10T23:26:42.570Z,13.04
2022-11-10T23:31:44.889Z,12.99
2022-11-10T23:36:47.239Z,12.81
2022-11-10T23:41:49.444Z,12.91
2022-11-10T23:46:51.633Z,12.98
2022-11-10T23:51:53.946Z,12.78
2022-11-10T23:56:56.412Z,12.83
